VABB/BOM METAR and TAF weather

Enter ICAO airport designator
Station Type Date Time Source
VABB METAR 2020/06/05 08:00 UTC NOAA

VABB 050800Z 18009KT 8000 FEW020 32/21 Q1006 NOSIG


Station Type Date Time Source
VABB Decoded METAR 2020/06/05 08:00 UTC NOAA

Bombay / Santacruz, India (VABB) 19-07N 072-51E 14M
Jun 05, 2020 - 04:00 AM EDT / 2020.06.05 0800 UTC
Wind: from the S (180 degrees) at 10 MPH (9 KT):0
Visibility: 4 mile(s):0
Sky conditions: mostly clear
Temperature: 89 F (32 C)
Dew Point: 69 F (21 C)
Relative Humidity: 52%
Pressure (altimeter): 29.71 in. Hg (1006 hPa)
ob: VABB 050800Z 18009KT 8000 FEW020 32/21 Q1006 NOSIG
cycle: 8

Station Type Date Time Source
VABB TAF 2020/06/05 06:09 UTC NOAA

TAF TAF VABB 050500Z 0506/0612 23010KT 5000 HZ FEW020 SCT025 BKN100
TEMPO 0512/0515 2500 -TSRA SCT010 FEW030CB BKN080
BECMG 0515/0517 29005KT 4000 HZ
BECMG 0521/0523 VRB03KT
BECMG 0603/0605 23010KT 5000 HZ

Example: see airport list